Time,TemperatureF,DewpointF,PressureIn,WindDirection,WindDirectionDegrees,WindSpeedMPH,WindSpeedGustMPH,Humidity,HourlyPrecipIn,Conditions,Clouds,dailyrainin,SoftwareType,DateUTC
2013-08-10 00:01:00,47.0,30.0,30.64,SSE,155,7.0,11.0,52,0.00,,,0.00,,2013-08-10 07:01:00,
2013-08-10 01:01:00,47.0,32.0,30.63,SSE,160,11.0,17.0,55,0.00,,,0.00,,2013-08-10 08:01:00,
2013-08-10 02:02:00,46.0,31.0,30.63,SSE,163,9.0,14.0,56,0.00,,,0.00,,2013-08-10 09:02:00,
2013-08-10 03:01:00,47.0,32.0,30.63,SSE,166,12.0,19.0,55,0.00,,,0.00,,2013-08-10 10:01:00,
2013-08-10 04:02:00,47.0,32.0,30.63,SSE,151,11.0,19.0,55,0.00,,,0.00,,2013-08-10 11:02:00,
2013-08-10 05:01:00,46.0,30.0,30.63,SE,140,9.0,17.0,54,0.00,,,0.00,,2013-08-10 12:01:00,
2013-08-10 05:11:00,46.0,30.0,30.63,SE,142,10.0,17.0,54,0.00,,,0.00,,2013-08-10 12:11:00,
2013-08-10 05:21:00,46.0,30.0,30.63,SE,141,10.0,16.0,54,0.00,,,0.00,,2013-08-10 12:21:00,
2013-08-10 06:01:00,45.0,29.0,30.63,SSE,154,10.0,17.0,53,0.00,,,0.00,,2013-08-10 13:01:00,
2013-08-10 07:01:00,44.0,27.0,30.65,SSE,167,8.0,15.0,51,0.00,,,0.00,,2013-08-10 14:01:00,
2013-08-10 07:12:00,44.0,28.0,30.66,South,175,10.0,15.0,52,0.00,,,0.00,,2013-08-10 14:12:00,
2013-08-10 08:02:00,44.0,28.0,30.66,SSE,162,9.0,15.0,54,0.00,,,0.00,,2013-08-10 15:02:00,
2013-08-10 08:22:00,46.0,30.0,30.67,SSE,167,12.0,19.0,53,0.00,,,0.00,,2013-08-10 15:22:00,
2013-08-10 08:33:00,46.0,30.0,30.67,South,169,10.0,20.0,53,0.00,,,0.00,,2013-08-10 15:33:00,
2013-08-10 08:43:00,46.0,29.0,30.66,SSE,168,13.0,20.0,51,0.00,,,0.00,,2013-08-10 15:43:00,
2013-08-10 09:01:00,46.0,28.0,30.67,SSE,161,9.0,20.0,49,0.00,,,0.00,,2013-08-10 16:01:00,
2013-08-10 09:43:00,48.0,32.0,30.69,South,170,9.0,20.0,53,0.00,,,0.00,,2013-08-10 16:43:00,
2013-08-10 09:53:00,48.0,31.0,30.68,South,174,12.0,18.0,52,0.00,,,0.00,,2013-08-10 16:53:00,
2013-08-10 10:02:00,48.0,32.0,30.69,South,177,9.0,18.0,54,0.00,,,0.00,,2013-08-10 17:02:00,
2013-08-10 10:43:00,49.0,32.0,30.69,South,178,12.0,21.0,52,0.00,,,0.00,,2013-08-10 17:43:00,
2013-08-10 10:52:00,48.0,32.0,30.69,South,178,11.0,21.0,54,0.00,,,0.00,,2013-08-10 17:52:00,
2013-08-10 11:01:00,49.0,33.0,30.69,South,184,10.0,17.0,54,0.00,,,0.00,,2013-08-10 18:01:00,
2013-08-10 11:32:00,49.0,33.0,30.70,South,181,9.0,15.0,54,0.00,,,0.00,,2013-08-10 18:32:00,
2013-08-10 11:43:00,50.0,32.0,30.70,South,180,9.0,19.0,49,0.00,,,0.00,,2013-08-10 18:43:00,
2013-08-10 11:52:00,49.0,31.0,30.70,SSE,168,9.0,21.0,49,0.00,,,0.00,,2013-08-10 18:52:00,
2013-08-10 12:01:00,50.0,31.0,30.70,South,178,10.0,17.0,48,0.00,,,0.00,,2013-08-10 19:01:00,
2013-08-10 12:44:00,50.0,32.0,30.69,SSE,168,9.0,19.0,49,0.00,,,0.00,,2013-08-10 19:44:00,
2013-08-10 13:43:00,52.0,32.0,30.68,South,179,11.0,18.0,47,0.00,,,0.00,,2013-08-10 20:43:00,
2013-08-10 13:52:00,50.0,33.0,30.68,South,179,9.0,22.0,51,0.00,,,0.00,,2013-08-10 20:52:00,
2013-08-10 14:01:00,49.0,34.0,30.68,South,178,12.0,18.0,55,0.00,,,0.00,,2013-08-10 21:01:00,
2013-08-10 14:42:00,51.0,34.0,30.68,South,181,10.0,21.0,53,0.00,,,0.00,,2013-08-10 21:42:00,
2013-08-10 14:52:00,50.0,34.0,30.68,South,180,10.0,22.0,53,0.00,,,0.00,,2013-08-10 21:52:00,
2013-08-10 15:52:00,54.0,35.0,30.66,South,183,11.0,21.0,49,0.00,,,0.00,,2013-08-10 22:52:00,
2013-08-10 16:53:00,53.0,35.0,30.65,South,177,10.0,17.0,50,0.00,,,0.00,,2013-08-10 23:53:00,
2013-08-10 17:01:00,52.0,34.0,30.65,South,183,8.0,17.0,50,0.00,,,0.00,,2013-08-11 00:01:00,
2013-08-10 17:32:00,51.0,30.0,30.64,South,180,13.0,22.0,45,0.00,,,0.00,,2013-08-11 00:32:00,
2013-08-10 17:42:00,51.0,30.0,30.64,South,180,13.0,22.0,45,0.00,,,0.00,,2013-08-11 00:42:00,
2013-08-10 17:52:00,50.0,31.0,30.64,South,178,11.0,17.0,48,0.00,,,0.00,,2013-08-11 00:52:00,
2013-08-10 18:01:00,50.0,31.0,30.64,South,177,8.0,16.0,48,0.00,,,0.00,,2013-08-11 01:01:00,
2013-08-10 18:11:00,49.0,29.0,30.64,South,175,11.0,18.0,46,0.00,,,0.00,,2013-08-11 01:11:00,
2013-08-10 18:32:00,50.0,30.0,30.64,South,170,10.0,18.0,46,0.00,,,0.00,,2013-08-11 01:32:00,
2013-08-10 18:42:00,49.0,31.0,30.64,South,175,8.0,15.0,49,0.00,,,0.00,,2013-08-11 01:42:00,
2013-08-10 18:53:00,48.0,30.0,30.65,South,177,9.0,17.0,49,0.00,,,0.00,,2013-08-11 01:53:00,
2013-08-10 19:02:00,48.0,30.0,30.65,South,172,9.0,16.0,49,0.00,,,0.00,,2013-08-11 02:02:00,
2013-08-10 19:32:00,49.0,29.0,30.66,South,176,9.0,15.0,45,0.00,,,0.00,,2013-08-11 02:32:00,
2013-08-10 19:43:00,48.0,28.0,30.66,South,170,8.0,18.0,45,0.00,,,0.00,,2013-08-11 02:43:00,
2013-08-10 19:53:00,47.0,27.0,30.66,South,171,9.0,15.0,45,0.00,,,0.00,,2013-08-11 02:53:00,
2013-08-10 20:02:00,47.0,28.0,30.66,South,170,7.0,12.0,48,0.00,,,0.00,,2013-08-11 03:02:00,
2013-08-10 20:33:00,46.0,27.0,30.66,South,172,8.0,15.0,47,0.00,,,0.00,,2013-08-11 03:33:00,
2013-08-10 21:01:00,46.0,27.0,30.67,SSE,168,8.0,13.0,48,0.00,,,0.00,,2013-08-11 04:01:00,
2013-08-10 21:11:00,46.0,27.0,30.67,SSE,167,9.0,17.0,47,0.00,,,0.00,,2013-08-11 04:11:00,
2013-08-10 21:32:00,46.0,29.0,30.67,South,169,9.0,16.0,52,0.00,,,0.00,,2013-08-11 04:32:00,
2013-08-10 21:42:00,46.0,29.0,30.67,SSE,164,8.0,16.0,52,0.00,,,0.00,,2013-08-11 04:42:00,
2013-08-10 21:53:00,46.0,29.0,30.69,SSE,164,9.0,15.0,52,0.00,,,0.00,,2013-08-11 04:53:00,
2013-08-10 22:02:00,46.0,29.0,30.68,SSE,163,8.0,13.0,51,0.00,,,0.00,,2013-08-11 05:02:00,
2013-08-10 22:22:00,46.0,28.0,30.68,SE,144,8.0,16.0,50,0.00,,,0.00,,2013-08-11 05:22:00,
2013-08-10 22:33:00,46.0,30.0,30.69,SE,128,7.0,18.0,53,0.00,,,0.00,,2013-08-11 05:33:00,
2013-08-10 22:52:00,44.0,37.0,30.67,East,97,12.0,23.0,75,0.00,,,0.00,,2013-08-11 05:52:00,
2013-08-10 23:01:00,44.0,38.0,30.67,East,84,10.0,26.0,80,0.00,,,0.00,,2013-08-11 06:01:00,
2013-08-10 23:11:00,44.0,39.0,30.67,ESE,106,13.0,22.0,81,0.00,,,0.00,,2013-08-11 06:11:00,
2013-08-10 23:32:00,43.0,39.0,30.66,East,93,12.0,28.0,86,0.00,,,0.00,,2013-08-11 06:32:00,
2013-08-10 23:44:00,44.0,39.0,30.66,East,94,11.0,24.0,81,0.00,,,0.00,,2013-08-11 06:44:00,
2013-08-10 23:53:00,45.0,35.0,30.66,ESE,108,10.0,17.0,69,0.00,,,0.00,,2013-08-11 06:53:00,